Time;durP1;ratioP1;P1;durP2;ratioP2;P2;SDS_P1;SDS_P2;PMS_P1;PMS_P2;Temp;Humidity;BMP_temperature;BMP_pressure;BME280_temperature;BME280_humidity;BME280_pressure;Samples;Min_cycle;Max_cycle;Signal;HPM_P1;HPM_P2
2021/08/26 00:06:26;;;;;;;13.77;9.00;;;15.90;99.90;;;;;;4992681;28;20517;-59
2021/08/26 00:08:54;;;;;;;14.90;9.60;;;15.90;99.90;;;;;;4975263;28;20497;-59
2021/08/26 00:11:24;;;;;;;16.38;9.52;;;15.80;99.90;;;;;;4974316;28;20859;-59
2021/08/26 00:13:52;;;;;;;17.90;9.30;;;15.70;99.90;;;;;;4992625;28;20700;-60
2021/08/26 00:16:24;;;;;;;13.90;8.70;;;15.70;99.90;;;;;;4991577;28;21040;-59
2021/08/26 00:18:49;;;;;;;17.98;9.07;;;15.60;99.90;;;;;;4974756;28;20422;-59
2021/08/26 00:21:15;;;;;;;13.80;8.80;;;15.60;99.90;;;;;;4991441;28;20406;-59
2021/08/26 00:23:41;;;;;;;16.75;9.30;;;15.50;99.90;;;;;;4992055;28;20412;-59
2021/08/26 00:26:07;;;;;;;16.40;9.30;;;15.50;99.90;;;;;;4991366;28;20474;-59
2021/08/26 00:28:33;;;;;;;13.30;8.55;;;15.50;99.90;;;;;;4992331;28;20779;-59
2021/08/26 00:31:00;;;;;;;15.35;8.90;;;15.50;99.90;;;;;;4991396;28;20442;-58
2021/08/26 00:33:26;;;;;;;17.07;8.60;;;15.40;99.90;;;;;;4974893;28;20484;-59
2021/08/26 00:35:52;;;;;;;15.32;9.00;;;15.30;99.90;;;;;;4992214;28;20873;-59
2021/08/26 00:38:20;;;;;;;15.13;9.40;;;15.20;99.90;;;;;;4991334;28;20383;-59
2021/08/26 00:40:47;;;;;;;15.90;9.07;;;15.10;99.90;;;;;;4991803;28;20433;-59
2021/08/26 00:43:13;;;;;;;14.77;8.98;;;15.10;99.90;;;;;;4990945;28;20762;-59
2021/08/26 00:45:40;;;;;;;14.45;8.80;;;15.20;99.90;;;;;;4991955;28;20470;-59
2021/08/26 00:48:07;;;;;;;20.40;9.50;;;15.20;99.90;;;;;;4991540;28;20485;-59
2021/08/26 00:50:33;;;;;;;17.17;9.32;;;15.20;99.90;;;;;;4992041;28;20410;-59
2021/08/26 00:53:00;;;;;;;14.63;8.45;;;15.10;99.90;;;;;;4990922;28;20869;-58
2021/08/26 00:55:27;;;;;;;14.32;8.93;;;15.00;99.90;;;;;;4991370;28;20399;-59
2021/08/26 00:57:53;;;;;;;15.60;9.30;;;14.90;99.90;;;;;;4991920;28;20395;-59
2021/08/26 01:00:19;;;;;;;14.70;9.30;;;14.90;99.90;;;;;;4991158;28;20406;-59
2021/08/26 01:02:58;;;;;;;15.20;9.43;;;14.80;99.90;;;;;;4974125;28;20394;-59
2021/08/26 01:05:46;;;;;;;17.33;9.10;;;14.80;99.90;;;;;;4991832;28;20383;-60
2021/08/26 01:08:31;;;;;;;15.80;9.10;;;14.80;99.90;;;;;;4991076;28;20907;-59
2021/08/26 01:10:59;;;;;;;16.33;9.68;;;14.70;99.90;;;;;;4974060;28;20464;-59
2021/08/26 01:13:39;;;;;;;15.35;8.77;;;14.70;99.90;;;;;;4991473;28;20462;-59
2021/08/26 01:16:06;;;;;;;14.70;9.02;;;14.70;99.90;;;;;;4990735;28;20440;-59
2021/08/26 01:18:37;;;;;;;16.50;9.02;;;14.70;99.90;;;;;;4991602;28;20406;-59
2021/08/26 01:21:04;;;;;;;14.25;9.23;;;14.70;99.90;;;;;;4990562;28;20402;-58
2021/08/26 01:23:33;;;;;;;14.35;8.95;;;14.70;99.90;;;;;;4991040;28;20390;-59
2021/08/26 01:26:06;;;;;;;15.73;9.57;;;14.60;99.90;;;;;;4990256;28;20386;-58
2021/08/26 01:28:42;;;;;;;18.92;9.80;;;14.50;99.90;;;;;;4991404;28;20437;-59
2021/08/26 01:31:09;;;;;;;14.85;8.88;;;14.50;99.90;;;;;;4990146;28;20487;-59
2021/08/26 01:33:35;;;;;;;15.87;9.77;;;14.40;99.90;;;;;;4990986;28;20449;-59
2021/08/26 01:36:03;;;;;;;14.55;9.00;;;14.30;99.90;;;;;;4990173;28;20406;-58
2021/08/26 01:38:28;;;;;;;15.35;9.20;;;14.40;99.90;;;;;;4991080;28;20382;-59
2021/08/26 01:40:54;;;;;;;16.60;9.90;;;14.50;99.90;;;;;;4991431;28;20398;-59
2021/08/26 01:43:21;;;;;;;14.60;9.07;;;14.50;99.90;;;;;;4990683;28;20375;-59
2021/08/26 01:45:47;;;;;;;13.48;7.95;;;14.50;99.90;;;;;;4990611;28;20794;-59
2021/08/26 01:48:20;;;;;;;15.80;8.90;;;14.50;99.90;;;;;;4990481;28;20409;-59
2021/08/26 01:50:48;;;;;;;14.70;9.40;;;14.40;99.90;;;;;;4990108;28;20433;-59
2021/08/26 01:53:14;;;;;;;17.08;9.80;;;14.40;99.90;;;;;;4989966;28;20480;-59
2021/08/26 01:55:41;;;;;;;14.20;9.07;;;14.40;99.90;;;;;;4973347;28;20398;-60
2021/08/26 01:58:09;;;;;;;16.73;9.90;;;14.30;99.90;;;;;;4989889;28;20442;-59
2021/08/26 02:00:35;;;;;;;14.10;9.45;;;14.30;99.90;;;;;;4990422;28;20489;-60
2021/08/26 02:03:01;;;;;;;15.53;9.53;;;14.30;99.90;;;;;;4990870;28;20562;-59
2021/08/26 02:05:26;;;;;;;16.45;10.48;;;14.20;99.90;;;;;;4973043;28;21016;-59
2021/08/26 02:07:53;;;;;;;15.70;9.87;;;14.20;99.90;;;;;;4990328;28;20387;-60
2021/08/26 02:10:19;;;;;;;17.65;9.80;;;14.20;99.90;;;;;;4989740;28;20383;-59
2021/08/26 02:12:45;;;;;;;15.68;9.82;;;14.10;99.90;;;;;;4990563;28;20449;-60
2021/08/26 02:15:11;;;;;;;16.20;10.70;;;14.00;99.90;;;;;;4989793;28;20391;-61
2021/08/26 02:17:38;;;;;;;17.20;11.43;;;14.00;99.90;;;;;;4990673;28;20493;-60
2021/08/26 02:20:09;;;;;;;19.02;11.65;;;13.90;99.90;;;;;;4972220;28;20809;-59
2021/08/26 02:22:35;;;;;;;16.70;11.27;;;13.90;99.90;;;;;;4990436;28;20454;-60
2021/08/26 02:25:03;;;;;;;18.25;11.45;;;13.80;99.90;;;;;;4989944;28;20481;-59
2021/08/26 02:27:28;;;;;;;18.42;11.82;;;13.70;99.90;;;;;;4990432;28;20882;-59
2021/08/26 02:29:54;;;;;;;16.00;11.38;;;13.50;99.90;;;;;;4990159;28;20394;-61
2021/08/26 02:32:19;;;;;;;18.75;12.25;;;13.50;99.90;;;;;;4989734;28;20456;-60
2021/08/26 02:34:45;;;;;;;18.53;11.40;;;13.50;99.90;;;;;;4990531;28;20382;-60
2021/08/26 02:37:11;;;;;;;16.63;11.05;;;13.50;99.90;;;;;;4972229;28;20378;-60
2021/08/26 02:39:37;;;;;;;20.38;12.10;;;13.50;99.90;;;;;;4990471;28;20406;-61
2021/08/26 02:42:03;;;;;;;16.13;10.82;;;13.50;99.90;;;;;;4989141;28;20888;-60
2021/08/26 02:44:29;;;;;;;17.27;11.68;;;13.50;99.90;;;;;;4989893;28;20428;-60
2021/08/26 02:46:56;;;;;;;18.40;11.20;;;13.50;99.90;;;;;;4990149;28;20929;-61
2021/08/26 02:49:22;;;;;;;19.08;11.23;;;13.70;99.90;;;;;;4989813;28;20379;-61
2021/08/26 02:51:48;;;;;;;17.38;10.70;;;13.80;99.90;;;;;;4990033;28;20476;-60
2021/08/26 02:54:14;;;;;;;15.55;10.90;;;14.00;99.90;;;;;;4989459;28;20389;-60
2021/08/26 02:56:40;;;;;;;16.90;10.53;;;14.10;99.90;;;;;;4989598;28;20474;-61
2021/08/26 02:59:05;;;;;;;16.73;10.52;;;14.20;99.90;;;;;;4989028;28;20450;-60
2021/08/26 03:01:31;;;;;;;14.90;10.40;;;14.30;99.90;;;;;;4990188;28;20795;-60
2021/08/26 03:03:57;;;;;;;20.65;10.13;;;14.40;99.90;;;;;;4989749;28;20385;-60
2021/08/26 03:06:22;;;;;;;16.53;10.47;;;14.50;99.90;;;;;;4989002;28;20489;-60
2021/08/26 03:08:48;;;;;;;15.97;10.50;;;14.50;99.90;;;;;;4989162;28;20394;-60
2021/08/26 03:11:14;;;;;;;15.60;10.00;;;14.60;99.90;;;;;;4988206;28;20901;-60
2021/08/26 03:13:39;;;;;;;16.30;9.80;;;14.50;99.90;;;;;;4989075;28;20735;-60
2021/08/26 03:16:05;;;;;;;17.10;10.10;;;14.60;99.90;;;;;;4989105;28;20958;-60
2021/08/26 03:18:31;;;;;;;14.32;10.15;;;14.50;99.90;;;;;;4989698;28;20805;-60
2021/08/26 03:20:58;;;;;;;15.82;10.43;;;14.60;99.90;;;;;;4989586;28;20426;-59
2021/08/26 03:23:23;;;;;;;17.38;10.02;;;14.70;99.90;;;;;;4989043;28;20374;-60
2021/08/26 03:25:49;;;;;;;16.27;9.70;;;14.80;99.90;;;;;;4989482;28;20449;-60
2021/08/26 03:28:17;;;;;;;16.48;10.50;;;14.80;99.90;;;;;;4988634;28;20457;-59
2021/08/26 03:30:43;;;;;;;15.93;10.23;;;14.80;99.90;;;;;;4989649;28;20414;-60
2021/08/26 03:33:08;;;;;;;18.42;11.05;;;14.80;99.90;;;;;;4988953;28;20395;-60
2021/08/26 03:35:34;;;;;;;16.27;9.53;;;14.80;99.90;;;;;;4989800;28;20380;-60
2021/08/26 03:38:00;;;;;;;16.40;10.10;;;14.90;99.90;;;;;;4989638;28;20390;-61
2021/08/26 03:40:25;;;;;;;17.20;10.10;;;14.90;99.90;;;;;;4989191;28;20825;-60
2021/08/26 03:42:51;;;;;;;14.27;10.13;;;14.80;99.90;;;;;;4989573;28;20386;-60
2021/08/26 03:45:17;;;;;;;14.38;9.63;;;14.80;99.90;;;;;;4988675;28;20471;-60
2021/08/26 03:47:42;;;;;;;16.57;9.57;;;14.80;99.90;;;;;;4989581;28;20481;-60
2021/08/26 03:50:08;;;;;;;15.20;9.80;;;14.80;99.90;;;;;;4970982;28;20993;-60
2021/08/26 03:52:34;;;;;;;18.55;10.50;;;14.80;99.90;;;;;;4971872;28;20720;-60
2021/08/26 03:55:00;;;;;;;16.42;10.50;;;14.80;99.90;;;;;;4971851;28;20414;-60
2021/08/26 03:57:25;;;;;;;16.65;10.20;;;13.60;99.90;;;;;;4988619;28;20386;-60
2021/08/26 03:59:51;;;;;;;16.80;10.30;;;14.80;99.90;;;;;;4989572;28;20387;-60
2021/08/26 04:02:16;;;;;;;15.50;10.00;;;14.90;99.90;;;;;;4973032;28;20403;-60
2021/08/26 04:04:42;;;;;;;15.40;10.40;;;15.00;99.90;;;;;;4969694;28;20555;-60
2021/08/26 04:07:08;;;;;;;17.10;10.30;;;15.10;99.90;;;;;;4968910;28;20388;-59
2021/08/26 04:09:33;;;;;;;16.63;10.52;;;15.10;99.90;;;;;;4969585;28;20488;-59
2021/08/26 04:11:59;;;;;;;15.67;10.90;;;15.10;99.90;;;;;;4969608;28;20433;-59
2021/08/26 04:14:25;;;;;;;19.20;10.20;;;15.20;99.90;;;;;;4971908;28;20388;-59
2021/08/26 04:16:50;;;;;;;15.23;10.10;;;15.20;99.90;;;;;;4973225;28;20388;-59
2021/08/26 04:19:16;;;;;;;17.60;11.00;;;15.30;99.90;;;;;;4972261;28;20484;-59
2021/08/26 04:21:42;;;;;;;16.67;10.70;;;15.30;99.90;;;;;;4973053;28;20385;-59
2021/08/26 04:24:07;;;;;;;15.98;10.93;;;15.30;99.90;;;;;;4972386;28;20384;-58
2021/08/26 04:26:33;;;;;;;18.50;11.17;;;15.30;99.90;;;;;;4973022;28;20392;-59
2021/08/26 04:28:59;;;;;;;18.10;11.03;;;15.20;99.90;;;;;;4972569;28;20963;-59
2021/08/26 04:31:24;;;;;;;18.55;11.15;;;15.20;99.90;;;;;;4954642;28;20700;-59
2021/08/26 04:33:50;;;;;;;18.43;11.10;;;15.30;99.90;;;;;;4972932;28;20381;-59
2021/08/26 04:36:15;;;;;;;15.37;10.27;;;15.30;99.90;;;;;;4972677;28;20470;-59
2021/08/26 04:38:41;;;;;;;15.68;11.00;;;15.40;99.90;;;;;;4955168;28;20888;-59
2021/08/26 04:41:07;;;;;;;17.25;10.70;;;15.40;99.90;;;;;;4971184;28;20447;-58
2021/08/26 04:43:32;;;;;;;17.60;11.23;;;15.40;99.90;;;;;;4972454;28;20456;-59
2021/08/26 04:45:58;;;;;;;18.52;10.98;;;15.40;99.90;;;;;;4972398;28;20388;-59
2021/08/26 04:48:23;;;;;;;15.70;10.73;;;15.50;99.90;;;;;;4971744;28;20499;-59
2021/08/26 04:50:49;;;;;;;16.90;10.47;;;15.50;99.90;;;;;;4971596;28;20420;-59
2021/08/26 04:53:15;;;;;;;16.67;11.18;;;15.50;99.90;;;;;;4971632;28;20423;-58
2021/08/26 04:55:41;;;;;;;16.23;10.20;;;15.50;99.90;;;;;;4972290;28;20385;-59
2021/08/26 04:58:07;;;;;;;17.25;10.48;;;15.50;99.90;;;;;;4971238;28;20388;-59
2021/08/26 05:00:33;;;;;;;17.10;9.90;;;15.50;99.90;;;;;;4972240;28;20545;-59
2021/08/26 05:02:59;;;;;;;16.07;9.70;;;14.20;99.90;;;;;;4972276;28;20387;-59
2021/08/26 05:05:24;;;;;;;14.43;9.48;;;15.50;99.90;;;;;;4971579;28;20938;-58
2021/08/26 05:07:50;;;;;;;17.83;9.82;;;15.50;99.90;;;;;;4972050;28;20412;-59
2021/08/26 05:10:16;;;;;;;16.23;9.50;;;15.60;99.90;;;;;;4970998;28;20388;-58
2021/08/26 05:12:41;;;;;;;14.77;9.73;;;15.60;99.90;;;;;;4971883;28;20748;-59
2021/08/26 05:15:07;;;;;;;16.85;9.60;;;15.60;99.90;;;;;;4971352;28;20390;-58
2021/08/26 05:17:33;;;;;;;17.60;9.97;;;15.60;99.90;;;;;;4972082;28;20459;-59
2021/08/26 05:19:58;;;;;;;15.57;9.85;;;15.50;99.90;;;;;;4971991;28;20396;-59
2021/08/26 05:22:24;;;;;;;15.77;9.70;;;15.60;99.90;;;;;;4971816;28;20518;-59
2021/08/26 05:24:51;;;;;;;16.40;9.47;;;15.60;99.90;;;;;;4970384;28;20399;-59
2021/08/26 05:27:18;;;;;;;21.55;10.30;;;15.60;99.90;;;;;;4971196;28;20498;-59
2021/08/26 05:29:44;;;;;;;15.00;9.60;;;15.70;99.90;;;;;;4971968;28;20394;-59
2021/08/26 05:32:10;;;;;;;17.45;9.77;;;15.70;99.90;;;;;;4971084;28;20420;-59
2021/08/26 05:34:36;;;;;;;18.20;10.60;;;15.70;99.90;;;;;;4976723;28;20889;-59
2021/08/26 05:37:02;;;;;;;19.17;10.80;;;15.70;99.90;;;;;;4984970;28;20390;-59
2021/08/26 05:39:27;;;;;;;18.63;10.15;;;15.70;99.90;;;;;;4979836;28;20410;-59
2021/08/26 05:41:53;;;;;;;16.93;10.23;;;15.70;99.90;;;;;;4981749;28;20386;-59
2021/08/26 05:44:19;;;;;;;16.52;10.25;;;15.70;99.90;;;;;;4979898;28;20382;-59
2021/08/26 05:46:45;;;;;;;18.80;10.97;;;15.80;99.90;;;;;;4979888;28;20395;-59
2021/08/26 05:49:11;;;;;;;17.50;10.37;;;15.80;99.90;;;;;;4974261;28;20411;-59
2021/08/26 05:51:37;;;;;;;19.90;10.15;;;15.80;99.90;;;;;;4976818;28;20773;-58
2021/08/26 05:54:03;;;;;;;18.27;10.40;;;15.90;99.90;;;;;;4986848;28;20404;-58
2021/08/26 05:56:30;;;;;;;16.30;10.77;;;16.10;99.90;;;;;;4970328;28;20395;-58
2021/08/26 05:58:56;;;;;;;19.67;11.32;;;16.10;99.90;;;;;;4979041;28;20390;-59
2021/08/26 06:01:21;;;;;;;18.50;10.60;;;16.20;99.90;;;;;;4981897;28;20440;-59
2021/08/26 06:03:47;;;;;;;19.33;10.95;;;16.20;99.90;;;;;;4980845;28;20536;-59
2021/08/26 06:06:13;;;;;;;18.30;10.80;;;16.30;99.90;;;;;;4980915;28;20394;-58
2021/08/26 06:08:38;;;;;;;21.17;11.43;;;16.30;99.90;;;;;;4972556;28;20379;-58
2021/08/26 06:11:04;;;;;;;20.55;11.38;;;16.20;99.90;;;;;;4969792;28;20411;-58
2021/08/26 06:13:30;;;;;;;16.95;11.00;;;16.20;99.90;;;;;;4975996;28;20454;-60
2021/08/26 06:15:56;;;;;;;16.88;11.07;;;16.20;99.90;;;;;;4984119;28;20770;-59
2021/08/26 06:18:22;;;;;;;17.77;10.40;;;16.30;99.90;;;;;;4988730;28;20504;-59
2021/08/26 06:20:48;;;;;;;22.47;10.97;;;16.20;99.90;;;;;;4977955;28;20414;-59
2021/08/26 06:23:14;;;;;;;17.10;10.35;;;16.20;99.90;;;;;;4988040;28;20889;-59
2021/08/26 06:25:40;;;;;;;19.08;9.60;;;16.20;99.90;;;;;;4983885;28;20403;-59
2021/08/26 06:28:06;;;;;;;19.10;9.80;;;16.30;99.90;;;;;;4980747;28;20893;-58
2021/08/26 06:30:32;;;;;;;18.97;10.77;;;16.40;99.90;;;;;;4987792;28;20425;-59
2021/08/26 06:32:57;;;;;;;15.75;9.90;;;16.40;99.90;;;;;;4987859;28;20465;-59
2021/08/26 06:35:23;;;;;;;16.17;10.20;;;16.40;99.90;;;;;;4985873;28;20490;-59
2021/08/26 06:37:49;;;;;;;16.25;9.70;;;16.30;99.90;;;;;;4985770;28;20406;-59
2021/08/26 06:40:16;;;;;;;17.60;9.60;;;16.10;99.90;;;;;;4983462;28;20418;-59
2021/08/26 06:42:42;;;;;;;16.75;10.00;;;16.20;99.90;;;;;;4988715;28;20426;-60
2021/08/26 06:45:08;;;;;;;18.10;10.57;;;16.10;99.90;;;;;;4987117;28;20413;-58
2021/08/26 06:47:34;;;;;;;16.52;10.00;;;16.10;99.90;;;;;;4986949;28;20972;-59
2021/08/26 06:50:00;;;;;;;19.27;10.20;;;16.10;99.90;;;;;;4988536;28;20394;-59
2021/08/26 06:52:25;;;;;;;16.60;9.90;;;16.10;99.90;;;;;;4981893;28;20430;-59
2021/08/26 06:54:51;;;;;;;17.50;11.13;;;16.10;99.90;;;;;;4977990;28;20419;-58
2021/08/26 06:57:16;;;;;;;16.75;10.60;;;16.10;99.90;;;;;;4981951;28;20437;-59
2021/08/26 06:59:42;;;;;;;17.47;11.40;;;16.10;99.90;;;;;;4977422;28;21122;-59
2021/08/26 07:02:08;;;;;;;18.07;11.57;;;16.20;99.90;;;;;;4972491;28;20872;-58
2021/08/26 07:04:33;;;;;;;17.50;11.65;;;16.20;99.90;;;;;;4977360;28;20460;-59
2021/08/26 07:06:59;;;;;;;16.93;11.63;;;16.30;99.90;;;;;;4983924;28;20514;-59
2021/08/26 07:09:24;;;;;;;21.00;12.00;;;16.30;99.90;;;;;;4985649;28;20401;-60
2021/08/26 07:11:50;;;;;;;19.50;12.27;;;14.70;99.90;;;;;;4986348;28;20421;-60
2021/08/26 07:14:16;;;;;;;18.57;11.83;;;16.40;99.90;;;;;;4986298;28;20401;-60
2021/08/26 07:16:42;;;;;;;20.00;11.50;;;16.40;99.90;;;;;;4984812;28;20437;-60
2021/08/26 07:19:08;;;;;;;19.03;11.43;;;16.50;99.90;;;;;;4985891;28;20438;-59
2021/08/26 07:21:34;;;;;;;17.17;11.20;;;16.50;99.90;;;;;;4986186;28;20406;-60
2021/08/26 07:23:59;;;;;;;20.83;11.90;;;16.40;99.90;;;;;;4988282;28;20897;-60
2021/08/26 07:26:25;;;;;;;23.75;12.02;;;16.30;99.90;;;;;;4979724;28;21092;-61
2021/08/26 07:28:52;;;;;;;17.33;10.67;;;16.30;99.90;;;;;;4985830;28;20893;-61
2021/08/26 07:31:18;;;;;;;20.45;11.18;;;16.30;99.90;;;;;;4983097;28;20413;-60
2021/08/26 07:33:44;;;;;;;24.85;11.68;;;16.40;99.90;;;;;;4986926;28;20415;-59
2021/08/26 07:36:10;;;;;;;19.38;10.80;;;16.50;99.90;;;;;;4983036;28;20860;-59
2021/08/26 07:38:35;;;;;;;22.40;11.20;;;16.60;99.90;;;;;;4982931;28;20971;-60
2021/08/26 07:41:01;;;;;;;17.60;10.60;;;16.70;99.90;;;;;;4985393;28;20464;-59
2021/08/26 07:43:31;;;;;;;17.75;10.85;;;16.70;99.90;;;;;;4986670;28;21025;-59
2021/08/26 07:45:57;;;;;;;21.20;11.88;;;16.70;99.90;;;;;;4987427;28;20414;-59
2021/08/26 07:48:23;;;;;;;18.45;10.65;;;16.60;99.90;;;;;;4985452;28;20406;-60
2021/08/26 07:50:49;;;;;;;18.42;11.65;;;16.50;99.90;;;;;;4984510;28;20446;-59
2021/08/26 07:53:15;;;;;;;19.15;12.63;;;16.30;99.90;;;;;;4984839;28;20495;-59
2021/08/26 07:55:41;;;;;;;19.40;12.00;;;16.00;99.90;;;;;;4983558;28;20561;-60
2021/08/26 07:58:07;;;;;;;22.70;13.20;;;15.70;99.90;;;;;;4982888;28;20811;-59
2021/08/26 08:00:32;;;;;;;22.10;13.17;;;15.80;99.90;;;;;;4978200;28;20496;-60
2021/08/26 08:02:58;;;;;;;19.77;12.70;;;15.70;99.90;;;;;;4990857;28;20409;-60
2021/08/26 08:05:24;;;;;;;22.03;13.40;;;15.50;99.90;;;;;;4988085;28;20502;-59
2021/08/26 08:07:49;;;;;;;20.63;13.63;;;15.30;99.90;;;;;;4985495;28;20415;-59
2021/08/26 08:10:16;;;;;;;19.88;14.02;;;15.20;99.90;;;;;;4990457;28;20753;-60
2021/08/26 08:12:42;;;;;;;20.85;13.73;;;15.30;99.90;;;;;;4990660;28;20422;-59
2021/08/26 08:15:10;;;;;;;24.33;15.52;;;15.10;99.90;;;;;;4989222;28;20421;-58
2021/08/26 08:17:37;;;;;;;22.27;14.70;;;15.20;99.90;;;;;;4983406;28;20418;-60
2021/08/26 08:20:05;;;;;;;20.63;14.40;;;15.20;99.90;;;;;;4990362;28;20410;-60
2021/08/26 08:22:31;;;;;;;21.05;15.00;;;15.20;99.90;;;;;;4984388;28;20476;-60
2021/08/26 08:24:57;;;;;;;24.42;14.70;;;15.30;99.90;;;;;;4989465;28;20529;-60
2021/08/26 08:27:23;;;;;;;22.08;14.75;;;15.40;99.90;;;;;;4988618;28;20382;-60
2021/08/26 08:29:48;;;;;;;22.48;15.20;;;15.50;99.90;;;;;;4989362;28;21144;-60
2021/08/26 08:32:14;;;;;;;21.02;14.95;;;16.20;99.90;;;;;;4982037;28;20509;-59
2021/08/26 08:34:40;;;;;;;19.60;14.90;;;15.40;99.90;;;;;;4974114;28;20813;-60
2021/08/26 08:37:06;;;;;;;22.30;15.73;;;15.50;99.90;;;;;;4991517;28;20489;-59
2021/08/26 08:39:32;;;;;;;25.55;16.02;;;15.40;99.90;;;;;;4972526;28;20439;-59
2021/08/26 08:41:58;;;;;;;25.35;16.02;;;15.30;99.90;;;;;;4972287;28;20387;-59
2021/08/26 08:44:24;;;;;;;22.97;16.70;;;15.50;99.90;;;;;;4971704;28;20394;-60
2021/08/26 08:46:54;;;;;;;25.70;16.80;;;15.70;99.90;;;;;;4971920;28;20486;-59
2021/08/26 08:49:21;;;;;;;27.63;17.00;;;15.90;99.90;;;;;;4971421;28;20384;-59
2021/08/26 08:51:50;;;;;;;25.80;17.52;;;15.90;99.90;;;;;;4971268;28;20493;-60
2021/08/26 08:54:16;;;;;;;27.65;18.15;;;15.90;99.90;;;;;;4981841;28;20402;-60
2021/08/26 08:56:41;;;;;;;24.10;17.00;;;16.20;99.90;;;;;;4977315;28;20396;-59
2021/08/26 08:59:07;;;;;;;23.33;16.70;;;16.30;99.90;;;;;;4976288;28;20412;-59
2021/08/26 09:01:33;;;;;;;26.65;18.10;;;16.30;99.90;;;;;;4974605;28;20392;-59
2021/08/26 09:03:58;;;;;;;29.90;18.10;;;16.00;99.90;;;;;;4972335;28;20882;-59
2021/08/26 09:06:38;;;;;;;29.00;19.30;;;15.70;99.90;;;;;;4978701;28;20415;-59
2021/08/26 09:09:06;;;;;;;29.45;19.40;;;15.60;99.90;;;;;;4975777;28;20431;-60
2021/08/26 09:11:32;;;;;;;30.17;20.50;;;15.60;99.90;;;;;;4977245;28;20418;-59
2021/08/26 09:14:09;;;;;;;27.27;19.20;;;15.50;99.90;;;;;;4967537;28;20460;-60
2021/08/26 09:16:38;;;;;;;26.00;18.45;;;15.50;99.90;;;;;;4980068;28;20886;-59
2021/08/26 09:19:33;;;;;;;24.42;17.35;;;15.50;99.90;;;;;;4977663;28;20399;-59
2021/08/26 09:22:08;;;;;;;27.37;17.43;;;15.50;99.90;;;;;;4973114;28;20494;-60
2021/08/26 09:24:48;;;;;;;22.13;16.42;;;15.40;99.90;;;;;;4979479;28;20437;-59
2021/08/26 09:27:39;;;;;;;24.58;17.73;;;15.40;99.90;;;;;;4978730;28;20414;-59
2021/08/26 09:30:19;;;;;;;25.77;17.50;;;15.40;99.90;;;;;;4980906;28;20496;-59
2021/08/26 09:32:48;;;;;;;22.90;17.00;;;15.50;99.90;;;;;;4982834;28;20410;-58
2021/08/26 09:35:14;;;;;;;20.87;16.33;;;15.60;99.90;;;;;;4982059;28;20395;-58
2021/08/26 09:37:51;;;;;;;24.70;17.10;;;15.70;99.90;;;;;;4982116;28;20486;-58
2021/08/26 09:40:22;;;;;;;21.77;15.18;;;15.80;99.90;;;;;;4971830;28;20419;-58
2021/08/26 09:42:59;;;;;;;22.55;15.15;;;15.80;99.90;;;;;;4973525;28;20451;-58
2021/08/26 09:45:27;;;;;;;19.77;13.57;;;16.00;99.90;;;;;;4981243;28;20446;-58
2021/08/26 09:48:01;;;;;;;18.98;13.77;;;15.80;99.90;;;;;;4979607;28;20412;-59
2021/08/26 09:50:46;;;;;;;18.27;12.52;;;15.70;99.90;;;;;;4977012;28;20428;-58
2021/08/26 09:53:17;;;;;;;15.75;11.65;;;15.60;99.90;;;;;;4981281;28;20785;-58
2021/08/26 09:55:49;;;;;;;13.77;10.88;;;15.60;99.90;;;;;;4980241;28;20397;-58
2021/08/26 09:58:17;;;;;;;15.60;10.80;;;15.60;99.90;;;;;;4984553;28;20876;-58
2021/08/26 10:00:43;;;;;;;16.88;11.30;;;15.40;99.90;;;;;;4979694;28;20478;-58
2021/08/26 10:03:13;;;;;;;14.63;10.60;;;15.30;99.90;;;;;;4981482;28;20880;-58
2021/08/26 10:05:44;;;;;;;15.05;10.70;;;15.20;99.90;;;;;;4976837;28;20417;-60
2021/08/26 10:08:11;;;;;;;13.57;10.10;;;15.70;99.90;;;;;;4978742;28;20454;-60
2021/08/26 10:10:39;;;;;;;14.55;9.18;;;15.10;99.90;;;;;;4976057;28;20533;-60
2021/08/26 10:13:06;;;;;;;11.82;8.40;;;15.00;99.90;;;;;;4979339;28;20837;-61
2021/08/26 10:15:32;;;;;;;13.13;9.23;;;15.10;99.90;;;;;;4966270;28;20896;-60
2021/08/26 10:17:58;;;;;;;12.23;8.52;;;15.20;99.90;;;;;;4980036;28;20412;-60
2021/08/26 10:20:24;;;;;;;12.07;8.50;;;15.50;99.90;;;;;;4977742;28;20902;-60
2021/08/26 10:22:52;;;;;;;14.05;7.93;;;15.80;99.90;;;;;;4980610;28;20417;-59
2021/08/26 10:25:18;;;;;;;11.60;8.30;;;15.80;99.90;;;;;;4979213;28;20474;-61
2021/08/26 10:27:45;;;;;;;11.40;7.80;;;15.90;99.90;;;;;;4984162;28;20420;-61
2021/08/26 10:30:35;;;;;;;11.00;7.22;;;15.90;99.90;;;;;;4978213;28;20418;-59
2021/08/26 10:33:15;;;;;;;12.45;7.70;;;17.20;99.90;;;;;;4981749;28;20437;-59
2021/08/26 10:35:53;;;;;;;10.60;7.13;;;16.00;99.90;;;;;;4975635;28;20400;-59
2021/08/26 10:38:28;;;;;;;10.88;7.57;;;16.00;99.90;;;;;;4975992;28;20404;-59
2021/08/26 10:41:13;;;;;;;10.30;7.05;;;16.20;99.90;;;;;;4972777;28;20483;-59
2021/08/26 10:43:40;;;;;;;10.10;6.60;;;16.30;99.90;;;;;;4975272;28;20404;-59
2021/08/26 10:46:09;;;;;;;9.52;6.72;;;16.70;99.90;;;;;;4975004;28;20490;-59
2021/08/26 10:48:35;;;;;;;11.00;6.40;;;16.70;99.90;;;;;;4974192;28;20584;-59
2021/08/26 10:51:16;;;;;;;9.80;6.43;;;16.80;99.90;;;;;;4979234;28;20441;-59
2021/08/26 10:53:48;;;;;;;10.88;6.80;;;16.90;99.90;;;;;;4977655;28;20522;-59
2021/08/26 10:56:18;;;;;;;11.38;6.65;;;17.20;99.90;;;;;;4980149;28;20492;-59
2021/08/26 10:58:44;;;;;;;11.30;7.20;;;17.60;99.90;;;;;;4980800;28;20392;-59
2021/08/26 11:01:29;;;;;;;11.50;7.15;;;17.70;99.90;;;;;;4978247;28;20405;-59
2021/08/26 11:04:00;;;;;;;10.40;6.30;;;18.00;99.90;;;;;;4978992;28;20419;-59
2021/08/26 11:06:28;;;;;;;12.70;7.22;;;18.20;99.90;;;;;;4978395;28;20449;-59
2021/08/26 11:09:16;;;;;;;10.87;7.00;;;18.10;99.90;;;;;;4974428;28;20910;-59
2021/08/26 11:11:47;;;;;;;10.73;7.00;;;18.30;99.90;;;;;;4976596;28;20412;-59
2021/08/26 11:14:13;;;;;;;10.18;6.20;;;18.80;99.90;;;;;;4976321;28;20950;-59
2021/08/26 11:16:41;;;;;;;11.57;7.77;;;18.80;99.90;;;;;;4988130;28;20379;-59
2021/08/26 11:19:08;;;;;;;12.05;7.47;;;18.70;99.90;;;;;;4989027;28;20736;-59
2021/08/26 11:24:14;;;;;;;11.10;6.73;;;18.40;99.90;;;;;;4985731;28;20404;-59
2021/08/26 11:26:48;;;;;;;12.80;6.85;;;18.20;99.90;;;;;;4979084;28;21043;-59
2021/08/26 11:29:22;;;;;;;11.63;7.05;;;18.00;99.90;;;;;;4993381;28;20386;-59
2021/08/26 11:31:54;;;;;;;12.88;7.53;;;17.70;99.90;;;;;;4984084;28;20447;-59
2021/08/26 11:34:30;;;;;;;12.60;7.50;;;17.70;99.90;;;;;;4980922;28;20506;-59
2021/08/26 11:37:01;;;;;;;11.80;7.53;;;17.70;99.90;;;;;;4983707;28;20410;-61
2021/08/26 11:39:29;;;;;;;12.07;7.10;;;17.60;99.90;;;;;;4978838;28;20408;-61
2021/08/26 11:41:55;;;;;;;10.75;6.53;;;17.60;99.90;;;;;;4982756;28;20439;-60
2021/08/26 11:44:21;;;;;;;13.35;7.50;;;17.80;99.90;;;;;;4984488;28;20428;-61
2021/08/26 11:46:47;;;;;;;11.82;6.57;;;18.20;99.90;;;;;;4984297;28;20460;-61
2021/08/26 11:49:13;;;;;;;17.77;7.90;;;18.60;99.90;;;;;;4980418;28;20411;-61
2021/08/26 11:51:39;;;;;;;14.02;7.10;;;18.70;99.90;;;;;;4979247;28;20513;-61
2021/08/26 11:54:21;;;;;;;11.77;6.60;;;18.80;99.90;;;;;;4986474;28;20397;-61
2021/08/26 11:56:48;;;;;;;13.75;7.15;;;19.00;99.90;;;;;;4982323;28;20427;-61
2021/08/26 11:59:42;;;;;;;11.90;6.20;;;19.10;99.90;;;;;;4978122;28;20396;-61
2021/08/26 12:02:19;;;;;;;11.52;6.78;;;19.20;99.90;;;;;;4975067;28;20472;-61
2021/08/26 12:04:47;;;;;;;12.57;6.80;;;18.90;99.90;;;;;;4983593;28;20425;-63
2021/08/26 12:07:33;;;;;;;11.27;6.55;;;18.80;99.90;;;;;;4983838;28;20392;-61
2021/08/26 12:10:22;;;;;;;12.67;6.07;;;18.70;99.90;;;;;;4973224;28;20470;-61
2021/08/26 12:13:08;;;;;;;11.73;6.50;;;19.50;99.90;;;;;;4976357;28;20424;-62
2021/08/26 12:15:41;;;;;;;11.48;6.20;;;19.90;99.90;;;;;;4980234;28;20392;-61
2021/08/26 12:18:25;;;;;;;12.70;6.80;;;19.90;99.90;;;;;;4978839;28;20502;-61
2021/08/26 12:20:54;;;;;;;11.65;6.05;;;19.90;99.90;;;;;;4980221;28;20966;-60
2021/08/26 12:23:25;;;;;;;11.80;6.17;;;20.10;99.90;;;;;;4982096;28;20482;-59
2021/08/26 12:26:03;;;;;;;14.00;7.30;;;19.90;99.90;;;;;;4981612;28;20394;-61
2021/08/26 12:28:33;;;;;;;12.00;6.67;;;19.90;99.90;;;;;;4982658;28;20899;-61
2021/08/26 12:30:59;;;;;;;11.20;6.07;;;20.00;99.90;;;;;;4981029;28;20930;-62
2021/08/26 12:33:25;;;;;;;12.00;6.60;;;19.70;99.90;;;;;;4978955;28;20867;-61
2021/08/26 12:35:58;;;;;;;13.53;6.93;;;19.60;99.90;;;;;;4979479;28;20394;-61
2021/08/26 12:38:36;;;;;;;10.25;6.43;;;19.60;99.90;;;;;;4980935;28;20475;-61
2021/08/26 12:41:05;;;;;;;12.18;6.60;;;19.60;99.90;;;;;;4979800;28;20920;-63
2021/08/26 12:43:40;;;;;;;13.30;6.65;;;19.40;99.90;;;;;;4980847;28;20481;-62